PWSweather.com
Personal Weather Stations
Station Observations
KILMORRI1
Goose Lake, Morris, IL 60450

Goose LakeMorris, IL 60450

Lat: 41.34, Lon: -88.3

Elevation: 523

Station Type:

www.gooselakeweather.com

High Low Average
Temperature 76.2°F24.6°C 50.3°F10.2°C 62.2°F16.8°C
Dew Point 65.7°F18.7°C 41.1°F5.1°C 54.0°F12.2°C
Winds 17.3 mph 27.8 kmh Calm Calm 9.0 mph WSW14.5 kmh WSW
Wind Gusts 26.5 mph42.6 kmh 2.3 mph3.7 kmh 14.0 mph22.5 kmh
Humidity 93% 61% 75%
Pressure 29.98 in1015.2 mb 29.80 in1009.1 mb -
Precipitation 0.04 in1.0 mm - -
Hour Temp Dew Point Humidity Winds Wind Gusts Pressure Precip Precip Rate Daily Precip Total
12:00 AM 49.5°F9.7°C 45.5°F7.5°C 86% 3.5 mph ESE5.6 kmh ESE 4.6 mph7.4 kmh 29.95 in1014.2 mb - 0.00 in0.0 mm 0.00 in0.0 mm
12:10 AM 49.7°F9.8°C 45.7°F7.6°C 86% 3.5 mph SE5.6 kmh SE 4.6 mph7.4 kmh 29.95 in1014.2 mb - 0.00 in0.0 mm 0.00 in0.0 mm
12:20 AM 49.9°F9.9°C 45.9°F7.7°C 86% 6.9 mph ESE11.1 kmh ESE 10.4 mph16.7 kmh 29.94 in1013.9 mb - 0.00 in0.0 mm 0.00 in0.0 mm
12:30 AM 50.1°F10.1°C 46.4°F8.0°C 87% 8.1 mph ESE13.0 kmh ESE 10.4 mph16.7 kmh 29.93 in1013.5 mb - 0.00 in0.0 mm 0.00 in0.0 mm
12:40 AM 50.2°F10.1°C 46.5°F8.1°C 87% 8.1 mph ESE13.0 kmh ESE 10.4 mph16.7 kmh 29.92 in1013.2 mb - 0.00 in0.0 mm 0.00 in0.0 mm
12:50 AM 50.2°F10.1°C 46.5°F8.1°C 87% 6.9 mph ESE11.1 kmh ESE 10.4 mph16.7 kmh 29.91 in1012.9 mb - 0.00 in0.0 mm 0.00 in0.0 mm
01:00 AM 50.3°F10.2°C 46.8°F8.2°C 88% 6.9 mph ESE11.1 kmh ESE 10.4 mph16.7 kmh 29.91 in1012.9 mb - 0.00 in0.0 mm 0.00 in0.0 mm
01:10 AM 50.5°F10.3°C 47.0°F8.3°C 88% 3.5 mph SE5.6 kmh SE 5.8 mph9.3 kmh 29.90 in1012.5 mb - 0.00 in0.0 mm 0.00 in0.0 mm
01:20 AM 50.8°F10.4°C 47.9°F8.8°C 90% 1.2 mph SSE1.9 kmh SSE 3.5 mph5.6 kmh 29.90 in1012.5 mb - 0.00 in0.0 mm 0.00 in0.0 mm
01:30 AM 51.4°F10.8°C 48.5°F9.2°C 90% 2.3 mph SSE3.7 kmh SSE 3.5 mph5.6 kmh 29.89 in1012.2 mb - 0.00 in0.0 mm 0.00 in0.0 mm
01:40 AM 51.7°F10.9°C 48.8°F9.3°C 90% Calm Calm 2.3 mph3.7 kmh 29.89 in1012.2 mb - 0.00 in0.0 mm 0.00 in0.0 mm
01:50 AM 52.1°F11.2°C 49.6°F9.8°C 91% 2.3 mph SE3.7 kmh SE 3.5 mph5.6 kmh 29.89 in1012.2 mb - 0.00 in0.0 mm 0.00 in0.0 mm
02:00 AM 52.4°F11.3°C 49.8°F9.9°C 91% Calm Calm 2.3 mph3.7 kmh 29.88 in1011.9 mb - 0.00 in0.0 mm 0.00 in0.0 mm
02:10 AM 52.8°F11.6°C 50.2°F10.1°C 91% 3.5 mph SSE5.6 kmh SSE 4.6 mph7.4 kmh 29.88 in1011.9 mb - 0.00 in0.0 mm 0.00 in0.0 mm
02:20 AM 53.2°F11.8°C 50.7°F10.4°C 91% 2.3 mph SSE3.7 kmh SSE 3.5 mph5.6 kmh 29.87 in1011.5 mb - 0.00 in0.0 mm 0.00 in0.0 mm
02:30 AM 53.8°F12.1°C 51.5°F10.8°C 92% 2.3 mph SW3.7 kmh SW 3.5 mph5.6 kmh 29.88 in1011.9 mb - 0.00 in0.0 mm 0.00 in0.0 mm
02:40 AM 54.7°F12.6°C 52.4°F11.3°C 92% 1.2 mph S1.9 kmh S 2.3 mph3.7 kmh 29.87 in1011.5 mb - 0.00 in0.0 mm 0.00 in0.0 mm
02:50 AM 55.2°F12.9°C 52.9°F11.6°C 92% 2.3 mph SSE3.7 kmh SSE 4.6 mph7.4 kmh 29.86 in1011.2 mb - 0.00 in0.0 mm 0.00 in0.0 mm
03:00 AM 56.0°F13.3°C 54.0°F12.2°C 93% 3.5 mph S5.6 kmh S 8.1 mph13.0 kmh 29.86 in1011.2 mb - 0.00 in0.0 mm 0.00 in0.0 mm
03:10 AM 57.5°F14.2°C 55.5°F13.1°C 93% 4.6 mph S7.4 kmh S 5.8 mph9.3 kmh 29.86 in1011.2 mb - 0.00 in0.0 mm 0.00 in0.0 mm
03:20 AM 58.5°F14.7°C 55.9°F13.3°C 91% 4.6 mph SSW7.4 kmh SSW 6.9 mph11.1 kmh 29.86 in1011.2 mb - 0.00 in0.0 mm 0.00 in0.0 mm
03:30 AM 59.3°F15.2°C 56.4°F13.6°C 90% 5.8 mph SSW9.3 kmh SSW 6.9 mph11.1 kmh 29.85 in1010.8 mb - 0.00 in0.0 mm 0.00 in0.0 mm
03:40 AM 59.7°F15.4°C 56.8°F13.8°C 90% 4.6 mph SSW7.4 kmh SSW 5.8 mph9.3 kmh 29.85 in1010.8 mb - 0.00 in0.0 mm 0.00 in0.0 mm
03:50 AM 60.3°F15.7°C 57.4°F14.1°C 90% 4.6 mph SW7.4 kmh SW 5.8 mph9.3 kmh 29.85 in1010.8 mb - 0.00 in0.0 mm 0.00 in0.0 mm
04:00 AM 60.8°F16.0°C 57.6°F14.2°C 89% 4.6 mph SSW7.4 kmh SSW 9.2 mph14.8 kmh 29.84 in1010.5 mb - 0.00 in0.0 mm 0.00 in0.0 mm
04:10 AM 61.2°F16.2°C 57.9°F14.4°C 89% 5.8 mph SSW9.3 kmh SSW 9.2 mph14.8 kmh 29.84 in1010.5 mb - 0.00 in0.0 mm 0.00 in0.0 mm
04:20 AM 61.5°F16.4°C 58.3°F14.6°C 89% 3.5 mph SSW5.6 kmh SSW 8.1 mph13.0 kmh 29.84 in1010.5 mb - 0.00 in0.0 mm 0.00 in0.0 mm
04:30 AM 62.0°F16.7°C 58.7°F14.8°C 89% 5.8 mph SSW9.3 kmh SSW 9.2 mph14.8 kmh 29.84 in1010.5 mb - 0.00 in0.0 mm 0.00 in0.0 mm
04:40 AM 62.6°F17.0°C 59.3°F15.2°C 89% 5.8 mph SW9.3 kmh SW 5.8 mph9.3 kmh 29.83 in1010.2 mb - 0.00 in0.0 mm 0.00 in0.0 mm
04:50 AM 63.0°F17.2°C 59.7°F15.4°C 89% 4.6 mph SW7.4 kmh SW 6.9 mph11.1 kmh 29.83 in1010.2 mb - 0.00 in0.0 mm 0.00 in0.0 mm
05:00 AM 64.0°F17.8°C 60.3°F15.7°C 88% 5.8 mph SW9.3 kmh SW 6.9 mph11.1 kmh 29.83 in1010.2 mb - 0.00 in0.0 mm 0.00 in0.0 mm
05:10 AM 65.1°F18.4°C 60.8°F16.0°C 86% 5.8 mph SW9.3 kmh SW 9.2 mph14.8 kmh 29.83 in1010.2 mb - 0.00 in0.0 mm 0.00 in0.0 mm
05:20 AM 65.9°F18.8°C 61.2°F16.2°C 85% 6.9 mph SSW11.1 kmh SSW 11.5 mph18.5 kmh 29.83 in1010.2 mb - 0.00 in0.0 mm 0.00 in0.0 mm
05:30 AM 66.2°F19.0°C 61.2°F16.2°C 84% 6.9 mph SSW11.1 kmh SSW 10.4 mph16.7 kmh 29.82 in1009.8 mb - 0.00 in0.0 mm 0.00 in0.0 mm
05:40 AM 66.2°F19.0°C 61.2°F16.2°C 84% 5.8 mph SW9.3 kmh SW 10.4 mph16.7 kmh 29.82 in1009.8 mb - 0.00 in0.0 mm 0.00 in0.0 mm
05:50 AM 66.4°F19.1°C 61.4°F16.3°C 84% 5.8 mph SSW9.3 kmh SSW 11.5 mph18.5 kmh 29.81 in1009.5 mb - 0.00 in0.0 mm 0.00 in0.0 mm
06:00 AM 66.6°F19.2°C 61.6°F16.4°C 84% 5.8 mph SW9.3 kmh SW 10.4 mph16.7 kmh 29.81 in1009.5 mb - 0.00 in0.0 mm 0.00 in0.0 mm
06:10 AM 66.7°F19.3°C 61.7°F16.5°C 84% 6.9 mph SSW11.1 kmh SSW 11.5 mph18.5 kmh 29.81 in1009.5 mb - 0.00 in0.0 mm 0.00 in0.0 mm
06:20 AM 66.7°F19.3°C 61.4°F16.3°C 83% 6.9 mph SSW11.1 kmh SSW 10.4 mph16.7 kmh 29.81 in1009.5 mb - 0.00 in0.0 mm 0.00 in0.0 mm
06:30 AM 66.8°F19.3°C 61.4°F16.3°C 83% 6.9 mph SSW11.1 kmh SSW 10.4 mph16.7 kmh 29.80 in1009.1 mb - 0.00 in0.0 mm 0.00 in0.0 mm
06:40 AM 66.9°F19.4°C 61.6°F16.4°C 83% 6.9 mph SW11.1 kmh SW 10.4 mph16.7 kmh 29.80 in1009.1 mb - 0.00 in0.0 mm 0.00 in0.0 mm
06:50 AM 67.4°F19.7°C 62.1°F16.7°C 83% 6.9 mph SW11.1 kmh SW 11.5 mph18.5 kmh 29.80 in1009.1 mb - 0.00 in0.0 mm 0.00 in0.0 mm
07:00 AM 67.9°F19.9°C 62.2°F16.8°C 82% 10.4 mph SW16.7 kmh SW 16.1 mph25.9 kmh 29.80 in1009.1 mb - 0.00 in0.0 mm 0.00 in0.0 mm
07:10 AM 68.1°F20.1°C 62.4°F16.9°C 82% 9.2 mph SSW14.8 kmh SSW 11.5 mph18.5 kmh 29.80 in1009.1 mb - 0.00 in0.0 mm 0.00 in0.0 mm
07:20 AM 68.2°F20.1°C 62.1°F16.7°C 81% 9.2 mph SW14.8 kmh SW 12.7 mph20.4 kmh 29.81 in1009.5 mb - 0.00 in0.0 mm 0.00 in0.0 mm
07:30 AM 68.4°F20.2°C 62.3°F16.8°C 81% 9.2 mph SW14.8 kmh SW 13.8 mph22.2 kmh 29.81 in1009.5 mb - 0.00 in0.0 mm 0.00 in0.0 mm
07:40 AM 68.6°F20.3°C 62.2°F16.8°C 80% 8.1 mph SW13.0 kmh SW 11.5 mph18.5 kmh 29.81 in1009.5 mb - 0.00 in0.0 mm 0.00 in0.0 mm
07:50 AM 68.6°F20.3°C 62.5°F16.9°C 81% 5.8 mph SW9.3 kmh SW 11.5 mph18.5 kmh 29.81 in1009.5 mb - 0.00 in0.0 mm 0.00 in0.0 mm
08:00 AM 69.1°F20.6°C 62.7°F17.1°C 80% 4.6 mph SW7.4 kmh SW 9.2 mph14.8 kmh 29.81 in1009.5 mb - 0.00 in0.0 mm 0.00 in0.0 mm
08:10 AM 70.7°F21.5°C 63.1°F17.3°C 77% 10.4 mph SW16.7 kmh SW 17.3 mph27.8 kmh 29.81 in1009.5 mb - 0.00 in0.0 mm 0.00 in0.0 mm
08:20 AM 70.9°F21.6°C 63.3°F17.4°C 77% 12.7 mph SW20.4 kmh SW 20.7 mph33.3 kmh 29.81 in1009.5 mb - 0.00 in0.0 mm 0.00 in0.0 mm
08:30 AM 71.4°F21.9°C 63.4°F17.4°C 76% 12.7 mph SW20.4 kmh SW 16.1 mph25.9 kmh 29.81 in1009.5 mb - 0.00 in0.0 mm 0.00 in0.0 mm
08:40 AM 72.0°F22.2°C 63.6°F17.6°C 75% 10.4 mph SW16.7 kmh SW 18.4 mph29.6 kmh 29.81 in1009.5 mb - 0.00 in0.0 mm 0.00 in0.0 mm
08:50 AM 73.1°F22.8°C 64.3°F17.9°C 74% 5.8 mph WSW9.3 kmh WSW 12.7 mph20.4 kmh 29.81 in1009.5 mb - 0.00 in0.0 mm 0.00 in0.0 mm
09:00 AM 74.5°F23.6°C 64.9°F18.3°C 72% 13.8 mph WSW22.2 kmh WSW 19.6 mph31.5 kmh 29.81 in1009.5 mb - 0.00 in0.0 mm 0.00 in0.0 mm
09:10 AM 75.2°F24.0°C 64.7°F18.2°C 70% 16.1 mph SW25.9 kmh SW 19.6 mph31.5 kmh 29.80 in1009.1 mb - 0.00 in0.0 mm 0.00 in0.0 mm
09:20 AM 74.8°F23.8°C 64.8°F18.2°C 71% 13.8 mph WSW22.2 kmh WSW 18.4 mph29.6 kmh 29.80 in1009.1 mb - 0.00 in0.0 mm 0.00 in0.0 mm
09:30 AM 76.2°F24.6°C 65.3°F18.5°C 69% 13.8 mph SW22.2 kmh SW 21.9 mph35.2 kmh 29.80 in1009.1 mb - 0.00 in0.0 mm 0.00 in0.0 mm
09:40 AM 75.2°F24.0°C 64.3°F17.9°C 69% 12.7 mph WSW20.4 kmh WSW 17.3 mph27.8 kmh 29.80 in1009.1 mb - 0.00 in0.0 mm 0.00 in0.0 mm
09:50 AM 74.8°F23.8°C 63.9°F17.7°C 69% 15.0 mph W24.1 kmh W 19.6 mph31.5 kmh 29.80 in1009.1 mb - 0.00 in0.0 mm 0.00 in0.0 mm
10:00 AM 74.1°F23.4°C 63.7°F17.6°C 70% 10.4 mph WSW16.7 kmh WSW 17.3 mph27.8 kmh 29.81 in1009.5 mb - 0.00 in0.0 mm 0.00 in0.0 mm
10:10 AM 74.1°F23.4°C 64.5°F18.1°C 72% 10.4 mph WSW16.7 kmh WSW 19.6 mph31.5 kmh 29.81 in1009.5 mb - 0.00 in0.0 mm 0.00 in0.0 mm
10:20 AM 71.6°F22.0°C 65.1°F18.4°C 80% 11.5 mph WSW18.5 kmh WSW 16.1 mph25.9 kmh 29.81 in1009.5 mb - 0.02 in0.5 mm 0.02 in0.5 mm
10:30 AM 70.4°F21.3°C 65.7°F18.7°C 85% 10.4 mph WSW16.7 kmh WSW 16.1 mph25.9 kmh 29.81 in1009.5 mb - 0.00 in0.0 mm 0.02 in0.5 mm
10:40 AM 71.0°F21.7°C 65.2°F18.4°C 82% 10.4 mph SW16.7 kmh SW 13.8 mph22.2 kmh 29.81 in1009.5 mb - 0.00 in0.0 mm 0.02 in0.5 mm
10:50 AM 71.5°F21.9°C 65.0°F18.3°C 80% 6.9 mph WSW11.1 kmh WSW 19.6 mph31.5 kmh 29.81 in1009.5 mb - 0.00 in0.0 mm 0.02 in0.5 mm
11:00 AM 71.2°F21.8°C 64.4°F18.0°C 79% 10.4 mph WSW16.7 kmh WSW 15.0 mph24.1 kmh 29.83 in1010.2 mb - 0.00 in0.0 mm 0.02 in0.5 mm
11:10 AM 70.1°F21.2°C 63.3°F17.4°C 79% 12.7 mph WSW20.4 kmh WSW 19.6 mph31.5 kmh 29.83 in1010.2 mb - 0.00 in0.0 mm 0.02 in0.5 mm
11:20 AM 68.3°F20.2°C 63.2°F17.3°C 84% 9.2 mph WSW14.8 kmh WSW 13.8 mph22.2 kmh 29.83 in1010.2 mb - 0.01 in0.3 mm 0.03 in0.8 mm
11:30 AM 67.0°F19.4°C 63.0°F17.2°C 87% 5.8 mph WSW9.3 kmh WSW 12.7 mph20.4 kmh 29.82 in1009.8 mb - 0.00 in0.0 mm 0.03 in0.8 mm
11:40 AM 67.1°F19.5°C 63.1°F17.3°C 87% 5.8 mph WSW9.3 kmh WSW 6.9 mph11.1 kmh 29.82 in1009.8 mb - 0.00 in0.0 mm 0.03 in0.8 mm
11:50 AM 67.7°F19.8°C 63.7°F17.6°C 87% 4.6 mph SW7.4 kmh SW 9.2 mph14.8 kmh 29.82 in1009.8 mb - 0.00 in0.0 mm 0.03 in0.8 mm
12:00 PM 68.4°F20.2°C 63.4°F17.4°C 84% 9.2 mph WSW14.8 kmh WSW 13.8 mph22.2 kmh 29.82 in1009.8 mb - 0.00 in0.0 mm 0.03 in0.8 mm
12:10 PM 67.9°F19.9°C 62.5°F16.9°C 83% 9.2 mph WSW14.8 kmh WSW 13.8 mph22.2 kmh 29.82 in1009.8 mb - 0.00 in0.0 mm 0.03 in0.8 mm
12:20 PM 67.0°F19.4°C 60.3°F15.7°C 79% 6.9 mph WNW11.1 kmh WNW 15.0 mph24.1 kmh 29.83 in1010.2 mb - 0.00 in0.0 mm 0.03 in0.8 mm
12:30 PM 66.3°F19.1°C 60.7°F15.9°C 82% 5.8 mph WNW9.3 kmh WNW 12.7 mph20.4 kmh 29.82 in1009.8 mb - 0.00 in0.0 mm 0.03 in0.8 mm
12:40 PM 66.7°F19.3°C 60.0°F15.6°C 79% 10.4 mph NW16.7 kmh NW 12.7 mph20.4 kmh 29.82 in1009.8 mb - 0.00 in0.0 mm 0.03 in0.8 mm
12:50 PM 65.9°F18.8°C 59.5°F15.3°C 80% 6.9 mph W11.1 kmh W 11.5 mph18.5 kmh 29.83 in1010.2 mb - 0.00 in0.0 mm 0.03 in0.8 mm
01:00 PM 66.7°F19.3°C 59.9°F15.5°C 79% 6.9 mph WNW11.1 kmh WNW 11.5 mph18.5 kmh 29.83 in1010.2 mb - 0.00 in0.0 mm 0.03 in0.8 mm
01:10 PM 66.0°F18.9°C 57.9°F14.4°C 75% 12.7 mph WNW20.4 kmh WNW 19.6 mph31.5 kmh 29.84 in1010.5 mb - 0.01 in0.3 mm 0.04 in1.0 mm
01:20 PM 63.9°F17.7°C 56.2°F13.4°C 76% 12.7 mph W20.4 kmh W 18.4 mph29.6 kmh 29.85 in1010.8 mb - 0.01 in0.3 mm 0.04 in1.0 mm
01:30 PM 64.0°F17.8°C 55.9°F13.3°C 75% 13.8 mph NW22.2 kmh NW 21.9 mph35.2 kmh 29.85 in1010.8 mb - 0.00 in0.0 mm 0.04 in1.0 mm
01:40 PM 64.4°F18.0°C 55.2°F12.9°C 72% 12.7 mph WNW20.4 kmh WNW 18.4 mph29.6 kmh 29.84 in1010.5 mb - 0.00 in0.0 mm 0.04 in1.0 mm
01:50 PM 63.8°F17.7°C 55.0°F12.8°C 73% 9.2 mph W14.8 kmh W 13.8 mph22.2 kmh 29.85 in1010.8 mb - 0.00 in0.0 mm 0.04 in1.0 mm
02:00 PM 63.6°F17.6°C 55.1°F12.8°C 74% 10.4 mph WNW16.7 kmh WNW 16.1 mph25.9 kmh 29.85 in1010.8 mb - 0.00 in0.0 mm 0.04 in1.0 mm
02:10 PM 64.8°F18.2°C 55.6°F13.1°C 72% 12.7 mph W20.4 kmh W 19.6 mph31.5 kmh 29.85 in1010.8 mb - 0.00 in0.0 mm 0.04 in1.0 mm
02:20 PM 64.7°F18.2°C 55.9°F13.3°C 73% 12.7 mph W20.4 kmh W 18.4 mph29.6 kmh 29.85 in1010.8 mb - 0.00 in0.0 mm 0.04 in1.0 mm
02:30 PM 66.4°F19.1°C 55.5°F13.1°C 68% 11.5 mph W18.5 kmh W 16.1 mph25.9 kmh 29.85 in1010.8 mb - 0.00 in0.0 mm 0.04 in1.0 mm
02:40 PM 66.3°F19.1°C 55.8°F13.2°C 69% 10.4 mph W16.7 kmh W 12.7 mph20.4 kmh 29.84 in1010.5 mb - 0.00 in0.0 mm 0.04 in1.0 mm
02:50 PM 67.3°F19.6°C 56.0°F13.3°C 67% 10.4 mph WNW16.7 kmh WNW 12.7 mph20.4 kmh 29.84 in1010.5 mb - 0.00 in0.0 mm 0.04 in1.0 mm
03:00 PM 67.1°F19.5°C 55.8°F13.2°C 67% 12.7 mph WNW20.4 kmh WNW 18.4 mph29.6 kmh 29.83 in1010.2 mb - 0.00 in0.0 mm 0.04 in1.0 mm
03:10 PM 67.1°F19.5°C 54.5°F12.5°C 64% 12.7 mph NW20.4 kmh NW 19.6 mph31.5 kmh 29.83 in1010.2 mb - 0.00 in0.0 mm 0.04 in1.0 mm
03:20 PM 66.4°F19.1°C 54.3°F12.4°C 65% 13.8 mph WNW22.2 kmh WNW 15.0 mph24.1 kmh 29.82 in1009.8 mb - 0.00 in0.0 mm 0.04 in1.0 mm
03:30 PM 66.5°F19.2°C 54.3°F12.4°C 65% 10.4 mph W16.7 kmh W 13.8 mph22.2 kmh 29.82 in1009.8 mb - 0.00 in0.0 mm 0.04 in1.0 mm
03:40 PM 66.4°F19.1°C 55.1°F12.8°C 67% 10.4 mph NW16.7 kmh NW 19.6 mph31.5 kmh 29.82 in1009.8 mb - 0.00 in0.0 mm 0.04 in1.0 mm
03:50 PM 65.8°F18.8°C 52.9°F11.6°C 63% 16.1 mph WNW25.9 kmh WNW 20.7 mph33.3 kmh 29.83 in1010.2 mb - 0.00 in0.0 mm 0.04 in1.0 mm
04:00 PM 66.0°F18.9°C 53.5°F11.9°C 64% 13.8 mph NW22.2 kmh NW 18.4 mph29.6 kmh 29.83 in1010.2 mb - 0.00 in0.0 mm 0.04 in1.0 mm
04:10 PM 65.5°F18.6°C 53.0°F11.7°C 64% 11.5 mph W18.5 kmh W 15.0 mph24.1 kmh 29.83 in1010.2 mb - 0.00 in0.0 mm 0.04 in1.0 mm
04:20 PM 66.0°F18.9°C 53.9°F12.2°C 65% 8.1 mph W13.0 kmh W 13.8 mph22.2 kmh 29.83 in1010.2 mb - 0.00 in0.0 mm 0.04 in1.0 mm
04:30 PM 65.5°F18.6°C 52.6°F11.4°C 63% 10.4 mph WNW16.7 kmh WNW 17.3 mph27.8 kmh 29.84 in1010.5 mb - 0.00 in0.0 mm 0.04 in1.0 mm
04:40 PM 64.5°F18.1°C 51.6°F10.9°C 63% 10.4 mph WNW16.7 kmh WNW 20.7 mph33.3 kmh 29.84 in1010.5 mb - 0.00 in0.0 mm 0.04 in1.0 mm
04:50 PM 64.4°F18.0°C 51.9°F11.1°C 64% 9.2 mph NW14.8 kmh NW 19.6 mph31.5 kmh 29.84 in1010.5 mb - 0.00 in0.0 mm 0.04 in1.0 mm
05:00 PM 63.4°F17.4°C 51.0°F10.6°C 64% 13.8 mph NW22.2 kmh NW 20.7 mph33.3 kmh 29.85 in1010.8 mb - 0.00 in0.0 mm 0.04 in1.0 mm
05:10 PM 63.2°F17.3°C 50.8°F10.4°C 64% 13.8 mph WNW22.2 kmh WNW 20.7 mph33.3 kmh 29.85 in1010.8 mb - 0.00 in0.0 mm 0.04 in1.0 mm
05:20 PM 63.2°F17.3°C 50.4°F10.2°C 63% 15.0 mph NW24.1 kmh NW 20.7 mph33.3 kmh 29.85 in1010.8 mb - 0.00 in0.0 mm 0.04 in1.0 mm
05:30 PM 62.3°F16.8°C 49.5°F9.7°C 63% 9.2 mph NW14.8 kmh NW 20.7 mph33.3 kmh 29.86 in1011.2 mb - 0.00 in0.0 mm 0.04 in1.0 mm
05:40 PM 62.2°F16.8°C 49.0°F9.4°C 62% 13.8 mph WNW22.2 kmh WNW 20.7 mph33.3 kmh 29.86 in1011.2 mb - 0.00 in0.0 mm 0.04 in1.0 mm
05:50 PM 61.9°F16.6°C 48.7°F9.3°C 62% 12.7 mph NW20.4 kmh NW 19.6 mph31.5 kmh 29.86 in1011.2 mb - 0.00 in0.0 mm 0.04 in1.0 mm
06:00 PM 61.3°F16.3°C 48.6°F9.2°C 63% 15.0 mph WNW24.1 kmh WNW 21.9 mph35.2 kmh 29.86 in1011.2 mb - 0.00 in0.0 mm 0.04 in1.0 mm
06:10 PM 61.3°F16.3°C 48.2°F9.0°C 62% 13.8 mph WNW22.2 kmh WNW 20.7 mph33.3 kmh 29.87 in1011.5 mb - 0.00 in0.0 mm 0.04 in1.0 mm
06:20 PM 60.7°F15.9°C 47.6°F8.7°C 62% 12.7 mph WNW20.4 kmh WNW 26.5 mph42.6 kmh 29.87 in1011.5 mb - 0.00 in0.0 mm 0.04 in1.0 mm
06:30 PM 60.5°F15.8°C 47.4°F8.6°C 62% 12.7 mph NW20.4 kmh NW 23.0 mph37.0 kmh 29.87 in1011.5 mb - 0.00 in0.0 mm 0.04 in1.0 mm
06:40 PM 60.0°F15.6°C 47.0°F8.3°C 62% 12.7 mph WNW20.4 kmh WNW 15.0 mph24.1 kmh 29.87 in1011.5 mb - 0.00 in0.0 mm 0.04 in1.0 mm
06:50 PM 59.4°F15.2°C 47.2°F8.4°C 64% 13.8 mph NW22.2 kmh NW 20.7 mph33.3 kmh 29.88 in1011.9 mb - 0.00 in0.0 mm 0.04 in1.0 mm
07:00 PM 59.3°F15.2°C 47.1°F8.4°C 64% 8.1 mph NW13.0 kmh NW 19.6 mph31.5 kmh 29.88 in1011.9 mb - 0.00 in0.0 mm 0.04 in1.0 mm
07:10 PM 59.3°F15.2°C 46.7°F8.2°C 63% 6.9 mph WNW11.1 kmh WNW 11.5 mph18.5 kmh 29.88 in1011.9 mb - 0.00 in0.0 mm 0.04 in1.0 mm
07:20 PM 59.2°F15.1°C 46.2°F7.9°C 62% 12.7 mph NW20.4 kmh NW 17.3 mph27.8 kmh 29.89 in1012.2 mb - 0.00 in0.0 mm 0.04 in1.0 mm
07:30 PM 58.6°F14.8°C 45.2°F7.3°C 61% 17.3 mph WNW27.8 kmh WNW 26.5 mph42.6 kmh 29.89 in1012.2 mb - 0.00 in0.0 mm 0.04 in1.0 mm
07:40 PM 57.9°F14.4°C 45.4°F7.4°C 63% 11.5 mph WNW18.5 kmh WNW 15.0 mph24.1 kmh 29.90 in1012.5 mb - 0.00 in0.0 mm 0.04 in1.0 mm
07:50 PM 57.3°F14.1°C 45.2°F7.3°C 64% 12.7 mph NW20.4 kmh NW 19.6 mph31.5 kmh 29.90 in1012.5 mb - 0.00 in0.0 mm 0.04 in1.0 mm
08:00 PM 56.8°F13.8°C 45.2°F7.3°C 65% 11.5 mph WNW18.5 kmh WNW 15.0 mph24.1 kmh 29.91 in1012.9 mb - 0.00 in0.0 mm 0.04 in1.0 mm
08:10 PM 56.5°F13.6°C 44.9°F7.2°C 65% 6.9 mph NW11.1 kmh NW 10.4 mph16.7 kmh 29.91 in1012.9 mb - 0.00 in0.0 mm 0.04 in1.0 mm
08:20 PM 56.4°F13.6°C 44.8°F7.1°C 65% 10.4 mph WNW16.7 kmh WNW 15.0 mph24.1 kmh 29.91 in1012.9 mb - 0.00 in0.0 mm 0.04 in1.0 mm
08:30 PM 56.1°F13.4°C 44.5°F6.9°C 65% 10.4 mph NW16.7 kmh NW 13.8 mph22.2 kmh 29.91 in1012.9 mb - 0.00 in0.0 mm 0.04 in1.0 mm
08:40 PM 55.7°F13.2°C 44.5°F6.9°C 66% 16.1 mph NW25.9 kmh NW 20.7 mph33.3 kmh 29.93 in1013.5 mb - 0.00 in0.0 mm 0.04 in1.0 mm
08:50 PM 55.2°F12.9°C 43.6°F6.4°C 65% 10.4 mph NW16.7 kmh NW 11.5 mph18.5 kmh 29.93 in1013.5 mb - 0.00 in0.0 mm 0.04 in1.0 mm
09:00 PM 54.7°F12.6°C 43.2°F6.2°C 65% 12.7 mph WNW20.4 kmh WNW 15.0 mph24.1 kmh 29.94 in1013.9 mb - 0.00 in0.0 mm 0.04 in1.0 mm
09:10 PM 54.4°F12.4°C 43.3°F6.3°C 66% 10.4 mph NW16.7 kmh NW 16.1 mph25.9 kmh 29.95 in1014.2 mb - 0.00 in0.0 mm 0.04 in1.0 mm
09:20 PM 54.0°F12.2°C 42.9°F6.1°C 66% 6.9 mph WNW11.1 kmh WNW 15.0 mph24.1 kmh 29.95 in1014.2 mb - 0.00 in0.0 mm 0.04 in1.0 mm
09:30 PM 54.0°F12.2°C 43.3°F6.3°C 67% 9.2 mph NW14.8 kmh NW 13.8 mph22.2 kmh 29.95 in1014.2 mb - 0.00 in0.0 mm 0.04 in1.0 mm
09:40 PM 54.1°F12.3°C 43.4°F6.3°C 67% 12.7 mph NW20.4 kmh NW 17.3 mph27.8 kmh 29.95 in1014.2 mb - 0.00 in0.0 mm 0.04 in1.0 mm
09:50 PM 54.0°F12.2°C 43.2°F6.2°C 67% 8.1 mph NW13.0 kmh NW 12.7 mph20.4 kmh 29.95 in1014.2 mb - 0.00 in0.0 mm 0.04 in1.0 mm
10:00 PM 53.9°F12.2°C 43.2°F6.2°C 67% 11.5 mph NW18.5 kmh NW 19.6 mph31.5 kmh 29.95 in1014.2 mb - 0.00 in0.0 mm 0.04 in1.0 mm
10:10 PM 53.9°F12.2°C 43.6°F6.4°C 68% 8.1 mph NW13.0 kmh NW 11.5 mph18.5 kmh 29.96 in1014.6 mb - 0.00 in0.0 mm 0.04 in1.0 mm
10:20 PM 53.8°F12.1°C 43.5°F6.4°C 68% 10.4 mph NW16.7 kmh NW 19.6 mph31.5 kmh 29.96 in1014.6 mb - 0.00 in0.0 mm 0.04 in1.0 mm
10:30 PM 53.7°F12.1°C 43.0°F6.1°C 67% 10.4 mph WNW16.7 kmh WNW 16.1 mph25.9 kmh 29.96 in1014.6 mb - 0.00 in0.0 mm 0.04 in1.0 mm
10:40 PM 53.6°F12.0°C 42.9°F6.1°C 67% 8.1 mph NW13.0 kmh NW 12.7 mph20.4 kmh 29.96 in1014.6 mb - 0.00 in0.0 mm 0.04 in1.0 mm
10:50 PM 53.5°F11.9°C 43.2°F6.2°C 68% 9.2 mph NW14.8 kmh NW 16.1 mph25.9 kmh 29.96 in1014.6 mb - 0.00 in0.0 mm 0.04 in1.0 mm
11:00 PM 53.4°F11.9°C 42.7°F5.9°C 67% 13.8 mph NW22.2 kmh NW 16.1 mph25.9 kmh 29.96 in1014.6 mb - 0.00 in0.0 mm 0.04 in1.0 mm
11:10 PM 53.2°F11.8°C 43.3°F6.3°C 69% 6.9 mph NW11.1 kmh NW 10.4 mph16.7 kmh 29.96 in1014.6 mb - 0.00 in0.0 mm 0.04 in1.0 mm
11:20 PM 53.0°F11.7°C 43.1°F6.2°C 69% 6.9 mph NW11.1 kmh NW 11.5 mph18.5 kmh 29.97 in1014.9 mb - 0.00 in0.0 mm 0.04 in1.0 mm
11:30 PM 52.9°F11.6°C 43.4°F6.3°C 70% 9.2 mph NW14.8 kmh NW 11.5 mph18.5 kmh 29.97 in1014.9 mb - 0.00 in0.0 mm 0.04 in1.0 mm
11:40 PM 52.9°F11.6°C 43.7°F6.5°C 71% 9.2 mph NW14.8 kmh NW 16.1 mph25.9 kmh 29.97 in1014.9 mb - 0.00 in0.0 mm 0.04 in1.0 mm
11:50 PM 52.6°F11.4°C 42.3°F5.7°C 68% 10.4 mph NW16.7 kmh NW 12.7 mph20.4 kmh 29.97 in1014.9 mb - 0.00 in0.0 mm 0.04 in1.0 mm